createdAt,value
2018-05-03T00:01:38.492Z,56.80
2018-05-03T00:04:06.328Z,56.80
2018-05-03T00:06:34.624Z,56.80
2018-05-03T00:09:02.332Z,56.80
2018-05-03T00:11:29.914Z,56.80
2018-05-03T00:13:57.630Z,56.80
2018-05-03T00:16:25.168Z,56.70
2018-05-03T00:18:52.903Z,56.50
2018-05-03T00:21:20.495Z,56.70
2018-05-03T00:23:48.144Z,56.60
2018-05-03T00:26:15.744Z,57.00
2018-05-03T00:28:43.339Z,57.10
2018-05-03T00:31:11.720Z,57.10
2018-05-03T00:33:39.366Z,57.20
2018-05-03T00:36:07.150Z,57.20
2018-05-03T00:38:34.770Z,57.50
2018-05-03T00:41:02.426Z,57.60
2018-05-03T00:43:30.085Z,57.80
2018-05-03T00:48:26.145Z,57.90
2018-05-03T00:50:53.779Z,58.10
2018-05-03T00:53:21.534Z,58.20
2018-05-03T00:55:49.075Z,58.40
2018-05-03T00:58:16.790Z,58.50
2018-05-03T01:00:44.417Z,58.50
2018-05-03T01:03:12.055Z,58.40
2018-05-03T01:05:39.699Z,58.40
2018-05-03T01:08:07.451Z,58.40
2018-05-03T01:10:35.135Z,58.40
2018-05-03T01:13:02.849Z,58.40
2018-05-03T01:15:30.493Z,58.10
2018-05-03T01:17:58.106Z,58.30
2018-05-03T01:20:26.552Z,58.30
2018-05-03T01:22:54.117Z,58.30
2018-05-03T01:25:21.711Z,58.20
2018-05-03T01:27:49.378Z,58.10
2018-05-03T01:30:17.182Z,58.00
2018-05-03T01:32:44.874Z,57.90
2018-05-03T01:35:24.405Z,57.80
2018-05-03T01:37:52.162Z,57.50
2018-05-03T01:40:19.735Z,57.10
2018-05-03T01:42:47.522Z,57.10
2018-05-03T01:45:15.256Z,57.10
2018-05-03T01:47:42.996Z,57.20
2018-05-03T01:50:10.714Z,57.20
2018-05-03T01:52:38.395Z,57.30
2018-05-03T01:55:07.234Z,57.10
2018-05-03T01:57:34.848Z,57.20
2018-05-03T02:00:02.644Z,57.20
2018-05-03T02:02:30.199Z,57.20
2018-05-03T02:04:57.764Z,57.30
2018-05-03T02:07:25.424Z,57.30
2018-05-03T02:09:53.112Z,57.30
2018-05-03T02:12:20.738Z,57.50
2018-05-03T02:14:48.411Z,57.50
2018-05-03T02:17:16.136Z,57.40
2018-05-03T02:19:43.804Z,57.40
2018-05-03T02:22:11.621Z,57.40
2018-05-03T02:24:39.223Z,57.40
2018-05-03T02:27:06.938Z,57.20
2018-05-03T02:29:34.618Z,57.10
2018-05-03T02:32:02.345Z,57.30
2018-05-03T02:34:30.128Z,57.40
2018-05-03T02:36:57.790Z,57.60
2018-05-03T02:39:25.522Z,57.50
2018-05-03T02:41:53.105Z,57.20
2018-05-03T02:44:20.762Z,57.30
2018-05-03T02:46:48.797Z,57.30
2018-05-03T02:49:16.458Z,57.40
2018-05-03T02:51:44.112Z,57.20
2018-05-03T02:54:12.468Z,57.60
2018-05-03T02:56:40.874Z,57.50
2018-05-03T02:59:22.453Z,57.30
2018-05-03T03:01:56.348Z,57.60
2018-05-03T03:04:41.580Z,57.40
2018-05-03T03:10:45.476Z,57.40
2018-05-03T03:13:27.324Z,57.50
2018-05-03T03:16:13.738Z,57.40
2018-05-03T03:18:58.793Z,57.30
2018-05-03T03:21:44.478Z,57.30
2018-05-03T03:24:29.774Z,57.00
2018-05-03T03:27:16.320Z,57.20
2018-05-03T03:33:06.912Z,57.40
2018-05-03T03:38:46.082Z,57.40
2018-05-03T03:41:25.584Z,57.50
2018-05-03T03:44:05.269Z,57.50
2018-05-03T03:46:32.952Z,57.40
2018-05-03T03:49:00.589Z,57.30
2018-05-03T03:51:28.277Z,57.30
2018-05-03T03:53:55.901Z,57.20
2018-05-03T03:56:23.591Z,57.00
2018-05-03T03:58:51.146Z,56.80
2018-05-03T04:01:18.835Z,56.80
2018-05-03T04:03:46.479Z,56.60
2018-05-03T04:06:14.057Z,56.60
2018-05-03T04:08:41.732Z,56.50
2018-05-03T04:11:09.341Z,56.50
2018-05-03T04:13:37.746Z,56.30
2018-05-03T04:16:05.390Z,56.20
2018-05-03T04:18:44.727Z,56.60
2018-05-03T04:21:24.027Z,56.30
2018-05-03T04:24:13.116Z,56.20
2018-05-03T04:26:40.734Z,56.10
2018-05-03T04:29:08.432Z,56.00
2018-05-03T04:31:36.098Z,56.20
2018-05-03T04:34:03.677Z,56.50
2018-05-03T04:36:31.300Z,56.40
2018-05-03T04:38:59.166Z,56.50
2018-05-03T04:41:26.767Z,56.50
2018-05-03T04:43:54.400Z,56.40
2018-05-03T04:46:22.035Z,56.50
2018-05-03T04:48:49.634Z,56.50
2018-05-03T04:51:17.248Z,56.10
2018-05-03T04:53:44.838Z,56.00
2018-05-03T04:56:13.243Z,56.00
2018-05-03T04:58:40.841Z,56.00
2018-05-03T05:01:08.575Z,55.70
2018-05-03T05:03:36.945Z,55.60
2018-05-03T05:06:06.556Z,55.50
2018-05-03T05:08:34.123Z,55.50
2018-05-03T05:11:01.895Z,55.50
2018-05-03T05:13:29.606Z,55.70
2018-05-03T05:15:58.238Z,55.50
2018-05-03T05:18:25.889Z,55.40
2018-05-03T05:20:54.497Z,55.20
2018-05-03T05:23:22.837Z,55.20
2018-05-03T05:25:51.300Z,55.10
2018-05-03T05:28:18.987Z,55.10
2018-05-03T05:30:47.462Z,54.80
2018-05-03T05:33:16.104Z,54.80
2018-05-03T05:35:43.775Z,54.50
2018-05-03T05:38:11.500Z,54.70
2018-05-03T05:40:39.892Z,54.10
2018-05-03T05:43:08.312Z,54.20
2018-05-03T05:45:36.106Z,54.10
2018-05-03T05:48:04.692Z,53.70
2018-05-03T05:50:33.255Z,53.00
2018-05-03T05:53:02.446Z,53.20
2018-05-03T05:55:30.095Z,53.10
2018-05-03T05:57:57.724Z,53.10
2018-05-03T06:00:25.302Z,53.10
2018-05-03T06:02:52.914Z,53.20
2018-05-03T06:05:20.612Z,53.10
2018-05-03T06:07:48.521Z,52.70
2018-05-03T06:10:16.234Z,52.70
2018-05-03T06:12:43.893Z,52.70
2018-05-03T06:15:11.485Z,53.60
2018-05-03T06:17:40.009Z,52.70
2018-05-03T06:20:08.568Z,52.10
2018-05-03T06:22:36.177Z,52.30
2018-05-03T06:25:03.947Z,52.40
2018-05-03T06:27:36.479Z,51.70
2018-05-03T06:30:05.676Z,51.30
2018-05-03T06:32:33.277Z,51.40
2018-05-03T06:35:00.887Z,51.40
2018-05-03T06:37:28.566Z,51.40
2018-05-03T06:39:56.194Z,51.80
2018-05-03T06:42:23.906Z,51.40
2018-05-03T06:44:52.341Z,51.40
2018-05-03T06:47:20.080Z,51.40
2018-05-03T06:49:47.825Z,51.10
2018-05-03T06:52:16.311Z,50.50
2018-05-03T06:54:44.129Z,50.50
2018-05-03T06:57:11.781Z,50.30
2018-05-03T06:59:39.471Z,49.70
2018-05-03T07:02:07.087Z,49.30
2018-05-03T07:04:34.829Z,49.40
2018-05-03T07:07:02.662Z,49.30
2018-05-03T07:09:30.339Z,49.20
2018-05-03T07:11:57.981Z,49.10
2018-05-03T07:14:25.987Z,48.20
2018-05-03T07:16:53.701Z,48.30
2018-05-03T07:19:21.355Z,48.00
2018-05-03T07:21:49.354Z,47.40
2018-05-03T07:24:16.988Z,47.10
2018-05-03T07:26:44.619Z,47.60
2018-05-03T07:29:12.328Z,47.10
2018-05-03T07:31:39.951Z,46.00
2018-05-03T07:34:07.528Z,45.30
2018-05-03T07:36:35.123Z,45.60
2018-05-03T07:39:02.831Z,44.80
2018-05-03T07:41:30.419Z,45.00
2018-05-03T07:43:57.995Z,44.60
2018-05-03T07:46:25.779Z,44.30
2018-05-03T07:48:53.813Z,44.20
2018-05-03T07:51:22.276Z,43.30
2018-05-03T07:53:49.853Z,43.20
2018-05-03T07:56:17.454Z,43.20
2018-05-03T07:58:45.844Z,42.50
2018-05-03T08:01:13.796Z,42.60
2018-05-03T08:03:42.269Z,41.90
2018-05-03T08:06:09.937Z,41.80
2018-05-03T08:08:37.585Z,40.50
2018-05-03T08:11:05.555Z,40.40
2018-05-03T08:13:33.328Z,39.20
2018-05-03T08:16:00.909Z,37.30
2018-05-03T08:18:29.375Z,35.80
2018-05-03T08:20:57.101Z,35.90
2018-05-03T08:23:24.681Z,36.10
2018-05-03T08:25:52.263Z,36.70
2018-05-03T08:28:20.013Z,37.00
2018-05-03T08:30:47.632Z,37.80
2018-05-03T08:33:16.405Z,37.60
2018-05-03T08:35:43.980Z,37.70
2018-05-03T08:38:12.441Z,38.00
2018-05-03T08:40:40.172Z,38.00
2018-05-03T08:43:07.876Z,38.30
2018-05-03T08:45:36.057Z,38.40
2018-05-03T08:48:03.683Z,39.30
2018-05-03T08:50:32.495Z,39.90
2018-05-03T08:53:00.201Z,39.90
2018-05-03T08:55:27.784Z,39.50
2018-05-03T08:57:55.445Z,39.70
2018-05-03T09:00:23.039Z,39.50
2018-05-03T09:02:51.595Z,39.90
2018-05-03T09:05:19.963Z,39.90
2018-05-03T09:07:47.641Z,39.90
2018-05-03T09:10:16.030Z,40.10
2018-05-03T09:12:44.352Z,39.90
2018-05-03T09:15:11.933Z,39.70
2018-05-03T09:17:39.545Z,39.40
2018-05-03T09:20:07.101Z,39.10
2018-05-03T09:22:34.865Z,37.70
2018-05-03T09:25:02.539Z,37.10
2018-05-03T09:27:30.350Z,36.30
2018-05-03T09:29:58.115Z,36.20
2018-05-03T09:32:25.723Z,36.00
2018-05-03T09:34:53.318Z,36.60
2018-05-03T09:37:20.953Z,36.70
2018-05-03T09:39:48.513Z,36.80
2018-05-03T09:42:16.114Z,37.10
2018-05-03T09:44:43.925Z,37.30
2018-05-03T09:47:11.529Z,37.40
2018-05-03T09:49:39.083Z,38.10
2018-05-03T09:52:06.679Z,38.20
2018-05-03T09:54:34.311Z,38.70
2018-05-03T09:57:02.672Z,38.80
2018-05-03T09:59:30.281Z,38.20
2018-05-03T10:01:58.021Z,38.00
2018-05-03T10:04:25.614Z,38.40
2018-05-03T10:06:53.997Z,38.00
2018-05-03T10:09:21.567Z,38.00
2018-05-03T10:11:49.965Z,36.10
2018-05-03T10:14:17.575Z,36.20
2018-05-03T10:16:45.183Z,34.50
2018-05-03T10:19:13.163Z,32.70
2018-05-03T10:21:40.789Z,31.10
2018-05-03T10:24:08.573Z,29.90
2018-05-03T10:26:36.188Z,29.40
2018-05-03T10:29:03.957Z,28.80
2018-05-03T10:31:31.649Z,28.40
2018-05-03T10:33:59.305Z,27.50
2018-05-03T10:36:27.049Z,26.60
2018-05-03T10:38:54.597Z,26.00
2018-05-03T10:41:22.272Z,25.10
2018-05-03T10:43:50.013Z,25.10
2018-05-03T10:46:17.705Z,24.60
2018-05-03T10:48:45.343Z,24.70
2018-05-03T10:51:13.022Z,24.20
2018-05-03T10:53:40.670Z,24.90
2018-05-03T10:56:08.355Z,25.60
2018-05-03T10:58:35.967Z,26.20
2018-05-03T11:01:03.625Z,26.40
2018-05-03T11:03:31.252Z,26.20
2018-05-03T11:05:59.752Z,26.40
2018-05-03T11:08:27.347Z,26.40
2018-05-03T11:10:55.033Z,27.30
2018-05-03T11:13:22.640Z,28.60
2018-05-03T11:15:50.465Z,29.90
2018-05-03T11:18:18.115Z,30.60
2018-05-03T11:20:45.732Z,32.10
2018-05-03T11:23:13.731Z,32.80
2018-05-03T11:25:41.334Z,33.60
2018-05-03T11:28:08.980Z,34.60
2018-05-03T11:30:36.600Z,34.70
2018-05-03T11:33:04.318Z,35.00
2018-05-03T11:35:31.951Z,34.90
2018-05-03T11:37:59.843Z,35.60
2018-05-03T11:40:27.471Z,36.30
2018-05-03T11:42:55.060Z,36.50
2018-05-03T11:45:22.707Z,36.80
2018-05-03T11:47:50.381Z,37.60
2018-05-03T11:50:18.031Z,37.10
2018-05-03T11:52:45.698Z,37.60
2018-05-03T11:55:13.321Z,37.00
2018-05-03T11:57:41.427Z,37.70
2018-05-03T12:00:09.040Z,37.30
2018-05-03T12:02:36.633Z,37.00
2018-05-03T12:05:04.271Z,37.10
2018-05-03T12:07:32.104Z,36.90
2018-05-03T12:10:00.511Z,37.40
2018-05-03T12:12:28.226Z,38.00
2018-05-03T12:14:56.192Z,37.00
2018-05-03T12:17:23.868Z,37.20
2018-05-03T12:19:51.556Z,37.30
2018-05-03T12:22:19.277Z,37.90
2018-05-03T12:24:46.884Z,37.90
2018-05-03T12:27:14.618Z,38.10
2018-05-03T12:29:42.483Z,38.50
2018-05-03T12:32:10.073Z,38.90
2018-05-03T12:34:37.687Z,39.10
2018-05-03T12:37:05.449Z,39.20
2018-05-03T12:39:33.029Z,39.80
2018-05-03T12:42:01.436Z,41.40
2018-05-03T12:44:29.053Z,40.70
2018-05-03T12:46:56.757Z,40.50
2018-05-03T12:49:25.142Z,40.40
2018-05-03T12:51:53.539Z,40.40
2018-05-03T12:54:21.223Z,40.40
2018-05-03T12:56:48.821Z,40.90
2018-05-03T12:59:16.449Z,41.30
2018-05-03T13:01:44.033Z,41.20
2018-05-03T13:04:11.666Z,41.80
2018-05-03T13:06:39.348Z,40.90
2018-05-03T13:09:06.969Z,40.70
2018-05-03T13:11:34.592Z,40.70
2018-05-03T13:14:02.272Z,40.70
2018-05-03T13:16:30.664Z,41.20
2018-05-03T13:18:58.284Z,41.10
2018-05-03T13:21:26.158Z,41.20
2018-05-03T13:23:53.787Z,41.40
2018-05-03T13:26:21.374Z,40.80
2018-05-03T13:28:49.704Z,41.50
2018-05-03T13:31:17.786Z,41.40
2018-05-03T13:33:45.374Z,41.10
2018-05-03T13:36:13.035Z,41.40
2018-05-03T13:38:40.998Z,41.40
2018-05-03T13:41:08.691Z,41.40
2018-05-03T13:43:36.526Z,42.30
2018-05-03T13:46:04.133Z,42.10
2018-05-03T13:48:31.737Z,42.80
2018-05-03T13:50:59.317Z,42.20
2018-05-03T13:53:27.031Z,42.50
2018-05-03T13:55:54.727Z,42.40
2018-05-03T13:58:22.318Z,42.50
2018-05-03T14:00:50.770Z,42.60
2018-05-03T14:03:19.030Z,42.70
2018-05-03T14:05:47.539Z,42.60
2018-05-03T14:08:15.204Z,42.90
2018-05-03T14:10:42.868Z,43.40
2018-05-03T14:13:10.636Z,43.00
2018-05-03T14:15:38.251Z,43.10
2018-05-03T14:18:05.956Z,43.30
2018-05-03T14:20:33.712Z,43.50
2018-05-03T14:23:01.823Z,43.60
2018-05-03T14:25:31.658Z,44.70
2018-05-03T14:27:59.398Z,44.60
2018-05-03T14:30:27.111Z,45.30
2018-05-03T14:32:54.669Z,45.50
2018-05-03T14:35:22.434Z,46.00
2018-05-03T14:37:50.071Z,46.80
2018-05-03T14:40:17.654Z,47.20
2018-05-03T14:42:45.346Z,47.70
2018-05-03T14:45:14.799Z,48.10
2018-05-03T14:47:42.895Z,48.20
2018-05-03T14:50:10.481Z,48.80
2018-05-03T14:52:38.153Z,49.40
2018-05-03T14:55:05.837Z,49.80
2018-05-03T14:57:33.437Z,50.10
2018-05-03T15:00:01.103Z,50.20
2018-05-03T15:02:28.878Z,50.20
2018-05-03T15:04:56.459Z,49.90
2018-05-03T15:07:24.142Z,49.70
2018-05-03T15:09:51.787Z,49.50
2018-05-03T15:12:20.247Z,49.70
2018-05-03T15:14:47.834Z,49.80
2018-05-03T15:17:15.486Z,50.20
2018-05-03T15:19:43.241Z,50.30
2018-05-03T15:22:10.834Z,50.60
2018-05-03T15:24:38.468Z,50.60
2018-05-03T15:27:06.424Z,51.10
2018-05-03T15:29:34.098Z,51.20
2018-05-03T15:32:01.765Z,51.70
2018-05-03T15:34:29.407Z,52.30
2018-05-03T15:36:57.061Z,52.80
2018-05-03T15:39:24.708Z,52.90
2018-05-03T15:41:52.314Z,52.90
2018-05-03T15:44:19.957Z,53.40
2018-05-03T15:46:47.572Z,53.70
2018-05-03T15:49:15.230Z,54.00
2018-05-03T15:51:43.270Z,54.10
2018-05-03T15:54:10.912Z,54.40
2018-05-03T15:56:38.600Z,54.80
2018-05-03T15:59:06.396Z,54.90
2018-05-03T16:01:34.131Z,55.20
2018-05-03T16:04:02.483Z,55.80
2018-05-03T16:06:30.186Z,55.90
2018-05-03T16:08:57.817Z,56.30
2018-05-03T16:11:25.497Z,56.60
2018-05-03T16:13:53.279Z,56.80
2018-05-03T16:16:21.227Z,56.90
2018-05-03T16:18:48.974Z,57.00
2018-05-03T16:21:16.551Z,56.90
2018-05-03T16:23:44.580Z,56.50
2018-05-03T16:26:12.389Z,56.50
2018-05-03T16:28:40.802Z,56.80
2018-05-03T16:31:08.571Z,56.70
2018-05-03T16:33:36.268Z,56.50
2018-05-03T16:36:03.906Z,56.30
2018-05-03T16:38:31.604Z,56.50
2018-05-03T16:40:59.340Z,56.40
2018-05-03T16:43:27.034Z,56.90
2018-05-03T16:45:54.643Z,57.00
2018-05-03T16:48:22.283Z,57.00
2018-05-03T16:50:50.418Z,57.00
2018-05-03T16:53:18.059Z,57.40
2018-05-03T16:55:45.839Z,57.00
2018-05-03T16:58:13.490Z,57.20
2018-05-03T17:00:41.155Z,57.20
2018-05-03T17:03:08.834Z,57.30
2018-05-03T17:05:36.425Z,57.10
2018-05-03T17:08:04.088Z,56.60
2018-05-03T17:10:31.735Z,56.30
2018-05-03T17:13:00.100Z,56.60
2018-05-03T17:15:27.703Z,56.60
2018-05-03T17:17:55.319Z,56.60
2018-05-03T17:20:23.031Z,56.50
2018-05-03T17:22:50.637Z,56.60
2018-05-03T17:25:18.356Z,56.60
2018-05-03T17:27:45.946Z,56.60
2018-05-03T17:30:14.184Z,56.90
2018-05-03T17:32:41.749Z,56.80
2018-05-03T17:35:09.351Z,56.80
2018-05-03T17:37:37.141Z,56.60
2018-05-03T17:40:05.611Z,56.30
2018-05-03T17:42:33.176Z,57.00
2018-05-03T17:45:00.776Z,56.80
2018-05-03T17:47:28.368Z,56.20
2018-05-03T17:49:56.050Z,56.50
2018-05-03T17:52:23.844Z,56.70
2018-05-03T17:54:51.539Z,56.50
2018-05-03T17:57:19.121Z,56.60
2018-05-03T17:59:47.003Z,56.80
2018-05-03T18:02:14.643Z,56.80
2018-05-03T18:04:42.270Z,56.90
2018-05-03T18:07:10.628Z,57.00
2018-05-03T18:09:38.998Z,57.10
2018-05-03T18:12:07.043Z,57.00
2018-05-03T18:14:34.727Z,57.10
2018-05-03T18:17:02.380Z,57.10
2018-05-03T18:19:29.965Z,57.30
2018-05-03T18:21:58.713Z,57.60
2018-05-03T18:24:26.370Z,57.60
2018-05-03T18:26:54.053Z,57.60
2018-05-03T18:29:21.737Z,57.60
2018-05-03T18:31:49.368Z,57.60
2018-05-03T18:34:17.383Z,57.70
2018-05-03T18:36:44.942Z,57.70
2018-05-03T18:39:12.502Z,57.50
2018-05-03T18:41:40.250Z,57.90
2018-05-03T18:44:08.752Z,57.40
2018-05-03T18:46:36.400Z,57.50
2018-05-03T18:49:04.125Z,57.50
2018-05-03T18:51:31.725Z,57.70
2018-05-03T18:54:00.106Z,57.30
2018-05-03T18:56:28.744Z,57.30
2018-05-03T18:58:56.410Z,57.10
2018-05-03T19:01:24.169Z,57.00
2018-05-03T19:03:52.183Z,57.00
2018-05-03T19:06:19.754Z,57.00
2018-05-03T19:08:47.359Z,57.20
2018-05-03T19:11:15.283Z,57.10
2018-05-03T19:13:42.838Z,57.10
2018-05-03T19:16:10.576Z,57.10
2018-05-03T19:18:38.198Z,57.30
2018-05-03T19:21:05.924Z,57.20
2018-05-03T19:23:34.285Z,57.50
2018-05-03T19:26:01.903Z,57.00
2018-05-03T19:28:29.514Z,57.20
2018-05-03T19:30:57.121Z,57.20
2018-05-03T19:33:25.013Z,57.00
2018-05-03T19:35:52.624Z,57.00
2018-05-03T19:38:20.214Z,57.00
2018-05-03T19:40:47.871Z,57.00
2018-05-03T19:43:15.728Z,56.90
2018-05-03T19:45:43.324Z,56.90
2018-05-03T19:48:10.885Z,57.00
2018-05-03T19:50:38.453Z,56.80
2018-05-03T19:53:06.098Z,57.10
2018-05-03T19:55:33.748Z,57.10
2018-05-03T19:58:01.334Z,57.70
2018-05-03T20:00:28.919Z,57.00
2018-05-03T20:02:56.567Z,57.00
2018-05-03T20:05:24.227Z,57.00
2018-05-03T20:07:51.865Z,57.00
2018-05-03T20:10:19.572Z,57.00
2018-05-03T20:12:47.304Z,57.00
2018-05-03T20:15:15.026Z,57.00
2018-05-03T20:17:42.639Z,57.20
2018-05-03T20:20:10.266Z,57.30
2018-05-03T20:22:37.888Z,57.40
2018-05-03T20:25:05.454Z,57.80
2018-05-03T20:27:33.106Z,58.10
2018-05-03T20:30:00.665Z,58.20
2018-05-03T20:32:28.428Z,58.30
2018-05-03T20:34:56.031Z,58.30
2018-05-03T20:37:23.639Z,58.40
2018-05-03T20:39:52.098Z,58.40
2018-05-03T20:42:19.762Z,58.40
2018-05-03T20:44:47.398Z,58.60
2018-05-03T20:47:14.986Z,58.60
2018-05-03T20:49:42.579Z,58.60
2018-05-03T20:52:10.144Z,58.80
2018-05-03T20:54:37.723Z,59.00
2018-05-03T20:57:05.465Z,59.30
2018-05-03T20:59:33.085Z,59.50
2018-05-03T21:02:00.746Z,59.70
2018-05-03T21:04:28.383Z,59.80
2018-05-03T21:06:55.981Z,60.00
2018-05-03T21:09:23.613Z,60.30
2018-05-03T21:11:51.197Z,60.10
2018-05-03T21:14:18.797Z,60.20
2018-05-03T21:16:46.388Z,60.40
2018-05-03T21:19:13.962Z,60.50
2018-05-03T21:21:41.939Z,60.30
2018-05-03T21:24:09.508Z,60.40
2018-05-03T21:26:37.136Z,60.60
2018-05-03T21:29:04.818Z,60.70
2018-05-03T21:31:32.482Z,61.00
2018-05-03T21:34:00.137Z,61.00
2018-05-03T21:36:27.729Z,61.20
2018-05-03T21:38:56.132Z,61.40
2018-05-03T21:41:23.728Z,61.50
2018-05-03T21:43:51.328Z,61.70
2018-05-03T21:46:18.917Z,61.60
2018-05-03T21:48:46.479Z,62.50
2018-05-03T21:51:14.086Z,61.90
2018-05-03T21:53:41.695Z,61.70
2018-05-03T21:56:09.281Z,61.60
2018-05-03T21:58:36.907Z,62.00
2018-05-03T22:01:06.363Z,62.50
2018-05-03T22:03:34.100Z,62.50
2018-05-03T22:06:01.692Z,63.40
2018-05-03T22:08:29.493Z,63.40
2018-05-03T22:10:57.063Z,63.30
2018-05-03T22:13:24.654Z,64.00
2018-05-03T22:15:52.220Z,64.00
2018-05-03T22:18:19.867Z,64.10
2018-05-03T22:20:47.801Z,63.60
2018-05-03T22:23:16.144Z,64.40
2018-05-03T22:25:43.831Z,64.40
2018-05-03T22:28:11.448Z,64.20
2018-05-03T22:30:39.076Z,64.40
2018-05-03T22:33:06.675Z,64.40
2018-05-03T22:35:34.252Z,64.40
2018-05-03T22:38:01.897Z,64.20
2018-05-03T22:40:29.527Z,64.10
2018-05-03T22:42:57.134Z,64.10
2018-05-03T22:45:24.683Z,64.00
2018-05-03T22:47:52.253Z,64.00
2018-05-03T22:50:19.854Z,63.90
2018-05-03T22:52:47.547Z,63.90
2018-05-03T22:55:15.124Z,63.80
2018-05-03T22:57:42.740Z,63.70
2018-05-03T23:00:10.351Z,63.90
2018-05-03T23:02:37.916Z,64.30
2018-05-03T23:05:05.538Z,64.40
2018-05-03T23:07:33.115Z,64.60
2018-05-03T23:10:00.812Z,64.60
2018-05-03T23:12:28.406Z,64.80
2018-05-03T23:14:55.995Z,64.70
2018-05-03T23:17:23.591Z,64.80
2018-05-03T23:19:51.160Z,64.80
2018-05-03T23:22:18.774Z,64.90
2018-05-03T23:24:46.327Z,64.80
2018-05-03T23:27:13.903Z,64.30
2018-05-03T23:29:41.467Z,64.10
2018-05-03T23:32:09.101Z,63.60
2018-05-03T23:34:36.645Z,64.00
2018-05-03T23:37:04.267Z,63.80
2018-05-03T23:39:31.908Z,63.60
2018-05-03T23:41:59.465Z,63.30
2018-05-03T23:44:27.021Z,63.20
2018-05-03T23:46:54.661Z,63.00
2018-05-03T23:49:22.219Z,62.40
2018-05-03T23:51:49.883Z,62.30
2018-05-03T23:54:17.447Z,62.30
2018-05-03T23:56:44.995Z,62.30
2018-05-03T23:59:12.683Z,62.20
